createdAt,value
2016-02-12T00:00:52.880Z,0
2016-02-12T00:01:53.320Z,0
2016-02-12T00:02:53.964Z,0
2016-02-12T00:03:54.217Z,0
2016-02-12T00:04:54.048Z,0
2016-02-12T00:05:54.504Z,0
2016-02-12T00:06:54.459Z,0
2016-02-12T00:07:52.837Z,0
2016-02-12T00:08:54.528Z,0
2016-02-12T00:09:54.187Z,0
2016-02-12T00:10:53.884Z,0
2016-02-12T00:11:53.623Z,0
2016-02-12T00:12:53.034Z,0
2016-02-12T00:13:52.395Z,0
2016-02-12T00:14:52.507Z,0
2016-02-12T00:15:52.900Z,0
2016-02-12T00:16:53.138Z,0
2016-02-12T00:17:52.437Z,0
2016-02-12T00:18:53.221Z,0
2016-02-12T00:19:53.257Z,0
2016-02-12T00:20:52.087Z,0
2016-02-12T00:21:53.590Z,0
2016-02-12T00:22:51.607Z,0
2016-02-12T00:23:51.085Z,0
2016-02-12T00:24:52.904Z,0
2016-02-12T00:25:51.410Z,0
2016-02-12T00:26:52.291Z,0
2016-02-12T00:27:52.360Z,0
2016-02-12T00:28:52.400Z,0
2016-02-12T00:29:53.243Z,0
2016-02-12T00:30:52.335Z,0
2016-02-12T00:31:51.537Z,0
2016-02-12T00:32:51.051Z,0
2016-02-12T00:33:51.927Z,0
2016-02-12T00:34:52.632Z,0
2016-02-12T00:35:52.242Z,0
2016-02-12T00:36:51.091Z,0
2016-02-12T00:37:51.482Z,0
2016-02-12T00:38:51.781Z,0
2016-02-12T00:39:53.345Z,0
2016-02-12T00:40:52.363Z,0
2016-02-12T00:41:50.646Z,0
2016-02-12T00:42:51.161Z,0
2016-02-12T00:43:51.523Z,0
2016-02-12T00:44:50.151Z,0
2016-02-12T00:45:50.325Z,0
2016-02-12T00:46:52.062Z,0
2016-02-12T00:47:52.189Z,0
2016-02-12T00:48:52.036Z,0
2016-02-12T00:49:50.757Z,0
2016-02-12T00:50:50.088Z,0
2016-02-12T00:51:51.481Z,0
2016-02-12T00:52:50.750Z,0
2016-02-12T00:53:50.440Z,0
2016-02-12T00:54:51.506Z,0
2016-02-12T00:55:50.649Z,0
2016-02-12T00:56:51.059Z,0
2016-02-12T00:57:51.389Z,0
2016-02-12T00:58:50.799Z,0
2016-02-12T00:59:50.957Z,0
2016-02-12T01:00:51.820Z,0
2016-02-12T01:01:51.010Z,0
2016-02-12T01:02:50.271Z,0
2016-02-12T01:03:51.165Z,0
2016-02-12T01:04:50.854Z,0
2016-02-12T01:05:50.779Z,0
2016-02-12T01:06:51.298Z,0
2016-02-12T01:07:50.534Z,0
2016-02-12T01:08:50.928Z,0
2016-02-12T01:09:51.165Z,0
2016-02-12T01:10:50.027Z,0
2016-02-12T01:11:51.392Z,0
2016-02-12T01:12:50.272Z,0
2016-02-12T01:13:50.135Z,0
2016-02-12T01:14:48.732Z,0
2016-02-12T01:15:49.780Z,0
2016-02-12T01:16:51.502Z,0
2016-02-12T01:17:49.504Z,0
2016-02-12T01:18:49.507Z,0
2016-02-12T01:19:49.371Z,0
2016-02-12T01:20:49.263Z,0
2016-02-12T01:21:49.219Z,0
2016-02-12T01:22:49.191Z,0
2016-02-12T01:23:49.085Z,0
2016-02-12T01:24:49.102Z,0
2016-02-12T01:25:48.980Z,0
2016-02-12T01:26:48.935Z,0
2016-02-12T01:27:48.829Z,0
2016-02-12T01:28:48.782Z,0
2016-02-12T01:29:48.754Z,0
2016-02-12T01:30:48.648Z,0
2016-02-12T01:31:48.635Z,0
2016-02-12T01:32:48.544Z,0
2016-02-12T01:33:48.516Z,0
2016-02-12T01:34:48.424Z,0
2016-02-12T01:35:48.413Z,0
2016-02-12T01:36:48.337Z,0
2016-02-12T01:37:48.261Z,0
2016-02-12T01:38:48.202Z,0
2016-02-12T01:39:48.223Z,0
2016-02-12T01:40:48.101Z,0
2016-02-12T01:41:48.025Z,0
2016-02-12T01:42:47.997Z,0
2016-02-12T01:43:47.909Z,0
2016-02-12T01:44:47.817Z,0
2016-02-12T01:45:47.789Z,0
2016-02-12T01:46:47.855Z,0
2016-02-12T01:47:47.623Z,0
2016-02-12T01:48:47.626Z,0
2016-02-12T01:49:47.567Z,0
2016-02-12T01:50:47.459Z,0
2016-02-12T01:51:47.400Z,0
2016-02-12T01:52:47.387Z,0
2016-02-12T01:53:47.327Z,0
2016-02-12T01:54:47.330Z,0
2016-02-12T01:55:47.177Z,0
2016-02-12T01:56:47.116Z,0
2016-02-12T01:57:47.073Z,0
2016-02-12T01:58:47.014Z,0
2016-02-12T01:59:46.953Z,0
2016-02-12T02:00:46.862Z,0
2016-02-12T02:01:46.850Z,0
2016-02-12T02:02:46.742Z,0
2016-02-12T02:03:46.714Z,0
2016-02-12T02:04:46.622Z,0
2016-02-12T02:05:46.892Z,0
2016-02-12T02:06:46.551Z,0
2016-02-12T02:07:46.507Z,0
2016-02-12T02:08:46.432Z,0
2016-02-12T02:09:46.356Z,0
2016-02-12T02:10:46.328Z,0
2016-02-12T02:11:46.253Z,0
2016-02-12T02:12:46.192Z,0
2016-02-12T02:13:46.149Z,0
2016-02-12T02:14:46.075Z,0
2016-02-12T02:15:46.000Z,0
2016-02-12T02:16:45.955Z,0
2016-02-12T02:17:45.943Z,0
2016-02-12T02:18:45.835Z,0
2016-02-12T02:19:45.823Z,0
2016-02-12T02:20:45.701Z,0
2016-02-12T02:21:45.704Z,0
2016-02-12T02:22:45.581Z,0
2016-02-12T02:23:45.552Z,0
2016-02-12T02:24:45.508Z,0
2016-02-12T02:25:45.464Z,0
2016-02-12T02:26:45.357Z,0
2016-02-12T02:27:45.313Z,0
2016-02-12T02:28:45.222Z,0
2016-02-12T02:29:45.162Z,0
2016-02-12T02:30:45.149Z,0
2016-02-12T02:31:45.121Z,0
2016-02-12T02:32:44.983Z,0
2016-02-12T02:33:44.939Z,0
2016-02-12T02:34:44.895Z,0
2016-02-12T02:35:44.834Z,0
2016-02-12T02:36:44.775Z,0
2016-02-12T02:37:44.684Z,0
2016-02-12T02:38:44.608Z,0
2016-02-12T02:39:44.595Z,0
2016-02-12T02:40:44.537Z,0
2016-02-12T02:41:44.492Z,0
2016-02-12T02:42:44.374Z,0
2016-02-12T02:43:44.330Z,0
2016-02-12T02:44:44.254Z,0
2016-02-12T02:45:44.319Z,0
2016-02-12T02:46:44.197Z,0
2016-02-12T02:47:44.215Z,0
2016-02-12T02:48:44.032Z,0
2016-02-12T02:49:43.989Z,0
2016-02-12T02:50:43.960Z,0
2016-02-12T02:51:43.916Z,0
2016-02-12T02:52:43.857Z,0
2016-02-12T02:53:43.750Z,0
2016-02-12T02:54:43.784Z,0
2016-02-12T02:55:43.600Z,0
2016-02-12T02:56:43.571Z,0
2016-02-12T02:57:43.573Z,0
2016-02-12T02:58:43.607Z,0
2016-02-12T02:59:43.266Z,0
2016-02-12T03:00:43.333Z,0
2016-02-12T03:01:43.242Z,0
2016-02-12T03:02:43.198Z,0
2016-02-12T03:03:43.200Z,0
2016-02-12T03:04:43.110Z,0
2016-02-12T03:05:43.066Z,0
2016-02-12T03:06:43.053Z,0
2016-02-12T03:07:42.930Z,0
2016-02-12T03:08:42.873Z,0
2016-02-12T03:09:42.813Z,0
2016-02-12T03:10:42.721Z,0
2016-02-12T03:11:42.635Z,0
2016-02-12T03:12:42.592Z,0
2016-02-12T03:13:42.547Z,0
2016-02-12T03:14:42.473Z,0
2016-02-12T03:15:42.429Z,0
2016-02-12T03:16:42.368Z,0
2016-02-12T03:17:42.294Z,0
2016-02-12T03:18:42.250Z,0
2016-02-12T03:19:42.191Z,0
2016-02-12T03:20:42.130Z,0
2016-02-12T03:21:42.071Z,0
2016-02-12T03:22:41.995Z,0
2016-02-12T03:23:41.951Z,0
2016-02-12T03:24:41.891Z,0
2016-02-12T03:25:41.832Z,0
2016-02-12T03:26:41.771Z,0
2016-02-12T03:27:41.728Z,0
2016-02-12T03:28:41.652Z,0
2016-02-12T03:29:41.592Z,0
2016-02-12T03:30:41.548Z,0
2016-02-12T03:31:41.441Z,0
2016-02-12T03:32:41.490Z,0
2016-02-12T03:33:41.384Z,0
2016-02-12T03:34:41.310Z,0
2016-02-12T03:35:41.250Z,0
2016-02-12T03:36:41.190Z,0
2016-02-12T03:37:41.131Z,0
2016-02-12T03:38:41.087Z,0
2016-02-12T03:39:40.980Z,0
2016-02-12T03:40:40.952Z,0
2016-02-12T03:41:40.955Z,0
2016-02-12T03:42:40.800Z,0
2016-02-12T03:43:40.761Z,0
2016-02-12T03:44:40.701Z,0
2016-02-12T03:45:40.673Z,0
2016-02-12T03:46:40.597Z,0
2016-02-12T03:47:40.506Z,0
2016-02-12T03:48:40.508Z,0
2016-02-12T03:49:40.401Z,0
2016-02-12T03:50:40.388Z,0
2016-02-12T03:51:40.298Z,0
2016-02-12T03:52:40.222Z,0
2016-02-12T03:53:40.178Z,0
2016-02-12T03:54:40.165Z,0
2016-02-12T03:55:40.090Z,0
2016-02-12T03:56:40.000Z,0
2016-02-12T03:57:39.970Z,0
2016-02-12T03:58:39.864Z,0
2016-02-12T03:59:39.804Z,0
2016-02-12T04:00:39.775Z,0
2016-02-12T04:01:39.716Z,0
2016-02-12T04:02:39.655Z,0
2016-02-12T04:03:39.565Z,0
2016-02-12T04:04:39.537Z,0
2016-02-12T04:05:39.430Z,0
2016-02-12T04:06:39.402Z,0
2016-02-12T04:07:39.342Z,0
2016-02-12T04:08:39.297Z,0
2016-02-12T04:09:39.222Z,0
2016-02-12T04:10:39.178Z,0
2016-02-12T04:11:39.105Z,0
2016-02-12T04:12:39.033Z,0
2016-02-12T04:13:38.989Z,0
2016-02-12T04:14:38.929Z,0
2016-02-12T04:15:38.886Z,0
2016-02-12T04:16:38.809Z,0
2016-02-12T04:17:38.751Z,0
2016-02-12T04:18:38.706Z,0
2016-02-12T04:19:38.647Z,0
2016-02-12T04:20:38.542Z,0
2016-02-12T04:21:38.528Z,0
2016-02-12T04:22:38.453Z,0
2016-02-12T04:23:38.409Z,0
2016-02-12T04:24:38.349Z,0
2016-02-12T04:25:38.258Z,0
2016-02-12T04:26:38.214Z,0
2016-02-12T04:27:38.169Z,0
2016-02-12T04:28:38.143Z,0
2016-02-12T04:29:38.036Z,0
2016-02-12T04:30:37.977Z,0
2016-02-12T04:31:37.917Z,0
2016-02-12T04:32:37.872Z,0
2016-02-12T04:33:37.813Z,0
2016-02-12T04:34:37.737Z,0
2016-02-12T04:35:37.662Z,0
2016-02-12T04:36:37.618Z,0
2016-02-12T04:37:37.574Z,0
2016-02-12T04:38:37.499Z,0
2016-02-12T04:39:37.440Z,0
2016-02-12T04:40:37.398Z,0
2016-02-12T04:41:37.322Z,0
2016-02-12T04:42:37.279Z,0
2016-02-12T04:43:37.218Z,0
2016-02-12T04:44:37.128Z,0
2016-02-12T04:45:36.942Z,0
2016-02-12T04:46:37.041Z,0
2016-02-12T04:47:36.980Z,0
2016-02-12T04:48:36.906Z,0
2016-02-12T04:49:36.846Z,0
2016-02-12T04:50:36.786Z,0
2016-02-12T04:51:36.727Z,0
2016-02-12T04:52:36.698Z,0
2016-02-12T04:53:36.622Z,0
2016-02-12T04:54:36.563Z,0
2016-02-12T04:55:36.534Z,0
2016-02-12T04:56:36.444Z,0
2016-02-12T04:57:36.383Z,0
2016-02-12T04:58:36.323Z,0
2016-02-12T04:59:36.232Z,0
2016-02-12T05:00:36.204Z,0
2016-02-12T05:01:36.144Z,0
2016-02-12T05:02:36.085Z,0
2016-02-12T05:03:36.024Z,0
2016-02-12T05:04:35.949Z,0
2016-02-12T05:05:35.904Z,0
2016-02-12T05:06:35.816Z,0
2016-02-12T05:07:35.786Z,0
2016-02-12T05:08:35.726Z,0
2016-02-12T05:09:35.651Z,0
2016-02-12T05:10:35.607Z,0
2016-02-12T05:11:35.426Z,0
2016-02-12T05:12:35.461Z,0
2016-02-12T05:13:35.417Z,0
2016-02-12T05:14:35.357Z,0
2016-02-12T05:15:35.328Z,0
2016-02-12T05:16:35.237Z,0
2016-02-12T05:17:35.193Z,0
2016-02-12T05:18:35.165Z,0
2016-02-12T05:19:35.074Z,0
2016-02-12T05:20:35.030Z,0
2016-02-12T05:21:34.923Z,0
2016-02-12T05:22:34.911Z,0
2016-02-12T05:23:34.836Z,0
2016-02-12T05:24:34.761Z,0
2016-02-12T05:25:34.748Z,0
2016-02-12T05:26:34.719Z,0
2016-02-12T05:27:34.596Z,0
2016-02-12T05:28:34.522Z,0
2016-02-12T05:29:34.477Z,0
2016-02-12T05:30:34.433Z,0
2016-02-12T05:31:34.341Z,0
2016-02-12T05:32:34.329Z,0
2016-02-12T05:33:34.254Z,0
2016-02-12T05:34:34.179Z,0
2016-02-12T05:35:34.135Z,0
2016-02-12T05:36:34.043Z,0
2016-02-12T05:37:33.998Z,0
2016-02-12T05:38:33.955Z,0
2016-02-12T05:39:33.863Z,0
2016-02-12T05:40:33.857Z,0
2016-02-12T05:41:33.782Z,0
2016-02-12T05:42:33.737Z,0
2016-02-12T05:43:33.664Z,0
2016-02-12T05:44:33.587Z,0
2016-02-12T05:45:33.544Z,0
2016-02-12T05:46:33.468Z,0
2016-02-12T05:47:33.470Z,0
2016-02-12T05:48:33.348Z,0
2016-02-12T05:49:33.321Z,0
2016-02-12T05:50:33.261Z,0
2016-02-12T05:51:33.218Z,0
2016-02-12T05:52:33.095Z,0
2016-02-12T05:53:33.098Z,0
2016-02-12T05:54:33.069Z,0
2016-02-12T05:55:32.978Z,0
2016-02-12T05:56:32.887Z,0
2016-02-12T05:57:32.861Z,0
2016-02-12T05:58:32.754Z,0
2016-02-12T05:59:32.757Z,0
2016-02-12T06:00:32.669Z,0
2016-02-12T06:01:32.609Z,0
2016-02-12T06:02:32.550Z,0
2016-02-12T06:03:32.473Z,0
2016-02-12T06:04:32.445Z,0
2016-02-12T06:05:32.339Z,0
2016-02-12T06:06:32.311Z,0
2016-02-12T06:07:32.234Z,0
2016-02-12T06:08:32.191Z,0
2016-02-12T06:09:32.162Z,0
2016-02-12T06:10:31.934Z,0
2016-02-12T06:11:31.984Z,0
2016-02-12T06:12:31.924Z,0
2016-02-12T06:13:31.911Z,0
2016-02-12T06:14:31.820Z,0
2016-02-12T06:15:31.792Z,0
2016-02-12T06:16:31.700Z,0
2016-02-12T06:17:31.673Z,0
2016-02-12T06:18:31.582Z,0
2016-02-12T06:19:31.521Z,0
2016-02-12T06:20:31.462Z,0
2016-02-12T06:21:31.386Z,0
2016-02-12T06:22:31.374Z,0
2016-02-12T06:23:31.329Z,0
2016-02-12T06:24:31.238Z,0
2016-02-12T06:25:31.179Z,0
2016-02-12T06:26:31.104Z,0
2016-02-12T06:27:31.044Z,0
2016-02-12T06:28:31.000Z,0
2016-02-12T06:29:30.971Z,0
2016-02-12T06:30:30.865Z,0
2016-02-12T06:31:30.805Z,4
2016-02-12T06:32:30.777Z,0
2016-02-12T06:33:30.701Z,0
2016-02-12T06:34:30.485Z,0
2016-02-12T06:35:30.584Z,0
2016-02-12T06:36:30.524Z,0
2016-02-12T06:37:30.479Z,0
2016-02-12T06:38:30.404Z,0
2016-02-12T06:39:30.423Z,0
2016-02-12T06:40:30.362Z,0
2016-02-12T06:41:30.273Z,0
2016-02-12T06:42:30.197Z,0
2016-02-12T06:43:30.109Z,4
2016-02-12T06:44:30.095Z,4
2016-02-12T06:45:29.990Z,4
2016-02-12T06:46:29.960Z,0
2016-02-12T06:47:29.870Z,0
2016-02-12T06:48:29.904Z,0
2016-02-12T06:49:29.781Z,4
2016-02-12T06:50:29.706Z,4
2016-02-12T06:51:29.631Z,4
2016-02-12T06:52:29.588Z,0
2016-02-12T06:53:29.543Z,0
2016-02-12T06:54:29.483Z,0
2016-02-12T06:55:29.455Z,0
2016-02-12T06:56:29.396Z,0
2016-02-12T06:57:29.414Z,0
2016-02-12T06:58:29.323Z,0
2016-02-12T06:59:29.263Z,0
2016-02-12T07:00:29.141Z,0
2016-02-12T07:01:29.083Z,0
2016-02-12T07:02:29.053Z,0
2016-02-12T07:03:28.931Z,0
2016-02-12T07:04:28.887Z,0
2016-02-12T07:05:28.828Z,0
2016-02-12T07:06:28.800Z,0
2016-02-12T07:07:28.709Z,0
2016-02-12T07:08:28.664Z,4
2016-02-12T07:09:28.590Z,4
2016-02-12T07:10:28.623Z,4
2016-02-12T07:11:28.440Z,0
2016-02-12T07:12:28.524Z,4
2016-02-12T07:13:28.354Z,4
2016-02-12T07:14:28.311Z,4
2016-02-12T07:15:28.219Z,4
2016-02-12T07:16:28.190Z,4
2016-02-12T07:17:28.116Z,8
2016-02-12T07:18:28.102Z,4
2016-02-12T07:19:28.105Z,8
2016-02-12T07:20:27.998Z,4
2016-02-12T07:21:27.907Z,4
2016-02-12T07:22:27.832Z,8
2016-02-12T07:23:27.787Z,8
2016-02-12T07:24:27.681Z,8
2016-02-12T07:25:27.637Z,4
2016-02-12T07:26:27.576Z,8
2016-02-12T07:27:27.674Z,8
2016-02-12T07:28:27.489Z,8
2016-02-12T07:29:27.288Z,8
2016-02-12T07:30:27.384Z,8
2016-02-12T07:31:27.497Z,8
2016-02-12T07:32:27.281Z,8
2016-02-12T07:33:27.298Z,12
2016-02-12T07:34:27.131Z,12
2016-02-12T07:35:26.461Z,12
2016-02-12T07:36:27.025Z,12
2016-02-12T07:37:26.966Z,12
2016-02-12T07:38:26.891Z,12
2016-02-12T07:39:26.847Z,12
2016-02-12T07:40:26.819Z,12
2016-02-12T07:41:26.744Z,16
2016-02-12T07:42:26.652Z,16
2016-02-12T07:43:26.609Z,16
2016-02-12T07:44:26.518Z,20
2016-02-12T07:45:26.490Z,20
2016-02-12T07:46:26.383Z,16
2016-02-12T07:47:26.386Z,16
2016-02-12T07:48:26.358Z,16
2016-02-12T07:49:26.251Z,20
2016-02-12T07:50:26.161Z,20
2016-02-12T07:51:26.100Z,20
2016-02-12T07:52:26.055Z,20
2016-02-12T07:53:26.043Z,16
2016-02-12T07:54:25.936Z,16
2016-02-12T07:55:25.909Z,16
2016-02-12T07:56:25.833Z,16
2016-02-12T07:57:25.914Z,16
2016-02-12T07:58:25.745Z,16
2016-02-12T07:59:25.529Z,16
2016-02-12T08:00:25.594Z,20
2016-02-12T08:01:25.519Z,20
2016-02-12T08:02:25.552Z,24
2016-02-12T08:03:25.493Z,24
2016-02-12T08:04:25.435Z,28
2016-02-12T08:05:25.359Z,32
2016-02-12T08:06:25.237Z,32
2016-02-12T08:07:25.209Z,32
2016-02-12T08:08:25.165Z,36
2016-02-12T08:09:25.058Z,36
2016-02-12T08:10:25.045Z,36
2016-02-12T08:11:25.032Z,36
2016-02-12T08:12:24.941Z,40
2016-02-12T08:13:24.885Z,40
2016-02-12T08:14:24.747Z,40
2016-02-12T08:15:24.735Z,36
2016-02-12T08:16:24.628Z,40
2016-02-12T08:17:24.616Z,40
2016-02-12T08:18:24.555Z,40
2016-02-12T08:19:24.449Z,36
2016-02-12T08:20:24.405Z,36
2016-02-12T08:21:24.378Z,36
2016-02-12T08:22:24.349Z,36
2016-02-12T08:23:24.274Z,36
2016-02-12T08:24:24.218Z,36
2016-02-12T08:25:24.157Z,40
2016-02-12T08:26:24.098Z,40
2016-02-12T08:27:23.975Z,44
2016-02-12T08:28:23.962Z,36
2016-02-12T08:29:23.730Z,32
2016-02-12T08:30:24.134Z,36
2016-02-12T08:31:24.012Z,36
2016-02-12T08:32:23.734Z,36
2016-02-12T08:33:23.642Z,40
2016-02-12T08:34:23.615Z,48
2016-02-12T08:35:23.570Z,56
2016-02-12T08:36:23.542Z,72
2016-02-12T08:37:23.420Z,80
2016-02-12T08:38:23.453Z,104
2016-02-12T08:39:23.331Z,480
2016-02-12T08:40:23.240Z,284
2016-02-12T08:41:23.216Z,192
2016-02-12T08:42:23.125Z,268
2016-02-12T08:43:23.112Z,92
2016-02-12T08:44:23.007Z,96
2016-02-12T08:45:22.963Z,80
2016-02-12T08:46:22.904Z,88
2016-02-12T08:47:22.843Z,100
2016-02-12T08:48:22.847Z,132
2016-02-12T08:49:22.599Z,96
2016-02-12T08:50:22.667Z,160
2016-02-12T08:51:22.606Z,60
2016-02-12T08:52:22.547Z,64
2016-02-12T08:53:22.487Z,88
2016-02-12T08:54:22.442Z,80
2016-02-12T08:55:22.461Z,396
2016-02-12T08:56:22.339Z,580
2016-02-12T08:57:22.247Z,232
2016-02-12T08:58:22.220Z,676
2016-02-12T08:59:22.145Z,744
2016-02-12T09:00:22.084Z,712
2016-02-12T09:01:22.025Z,788
2016-02-12T09:02:22.012Z,892
2016-02-12T09:03:21.967Z,760
2016-02-12T09:04:21.908Z,152
2016-02-12T09:05:21.791Z,112
2016-02-12T09:06:21.794Z,160
2016-02-12T09:07:21.780Z,268
2016-02-12T09:08:21.705Z,444
2016-02-12T09:09:21.614Z,420
2016-02-12T09:10:21.522Z,432
2016-02-12T09:11:21.588Z,496
2016-02-12T09:12:21.500Z,448
2016-02-12T09:13:21.361Z,312
2016-02-12T09:14:21.364Z,304
2016-02-12T09:15:21.384Z,352
2016-02-12T09:16:21.278Z,344
2016-02-12T09:17:21.217Z,328
2016-02-12T09:18:21.188Z,320
2016-02-12T09:19:21.067Z,388
2016-02-12T09:20:21.023Z,524
2016-02-12T09:21:21.026Z,664
2016-02-12T09:22:20.966Z,808
2016-02-12T09:23:20.890Z,892
2016-02-12T09:24:20.833Z,928
2016-02-12T09:25:20.758Z,948
2016-02-12T09:26:20.697Z,936
2016-02-12T09:27:20.654Z,900
2016-02-12T09:28:20.657Z,904
2016-02-12T09:29:20.562Z,880
2016-02-12T09:30:20.522Z,868
2016-02-12T09:31:20.417Z,868
2016-02-12T09:32:20.392Z,896
2016-02-12T09:33:20.311Z,884
2016-02-12T09:34:20.223Z,840
2016-02-12T09:35:20.191Z,928
2016-02-12T09:36:20.158Z,964
2016-02-12T09:37:20.124Z,936
2016-02-12T09:38:20.028Z,908
2016-02-12T09:39:20.012Z,916
2016-02-12T09:40:19.965Z,944
2016-02-12T09:41:19.889Z,896
2016-02-12T09:42:19.844Z,780
2016-02-12T09:43:19.814Z,728
2016-02-12T09:44:19.769Z,760
2016-02-12T09:45:19.710Z,812
2016-02-12T09:46:19.711Z,800
2016-02-12T09:47:19.635Z,776
2016-02-12T09:48:19.605Z,788
2016-02-12T09:49:19.514Z,772
2016-02-12T09:50:19.532Z,828
2016-02-12T09:51:19.426Z,808
2016-02-12T09:52:19.400Z,804
2016-02-12T09:53:19.340Z,772
2016-02-12T09:54:19.343Z,696
2016-02-12T09:55:19.237Z,656
2016-02-12T09:56:19.240Z,668
2016-02-12T09:57:19.148Z,664
2016-02-12T09:58:18.962Z,608
2016-02-12T09:59:19.059Z,576
2016-02-12T10:00:19.047Z,524
2016-02-12T10:01:18.956Z,512
2016-02-12T10:02:19.318Z,548
2016-02-12T10:03:18.928Z,520
2016-02-12T10:04:18.805Z,444
2016-02-12T10:05:18.778Z,452
2016-02-12T10:06:18.733Z,488
2016-02-12T10:07:18.705Z,464
2016-02-12T10:08:18.693Z,472
2016-02-12T10:09:18.585Z,516
2016-02-12T10:10:18.528Z,520
2016-02-12T10:11:18.500Z,496
2016-02-12T10:12:18.456Z,544
2016-02-12T10:13:18.447Z,584
2016-02-12T10:14:18.372Z,604
2016-02-12T10:15:18.296Z,628
2016-02-12T10:16:18.236Z,648
2016-02-12T10:17:17.458Z,628
2016-02-12T10:18:18.133Z,608
2016-02-12T10:19:18.089Z,632
2016-02-12T10:20:18.014Z,692
2016-02-12T10:21:18.000Z,708
2016-02-12T10:22:17.941Z,704
2016-02-12T10:23:17.881Z,708
2016-02-12T10:24:17.837Z,720
2016-02-12T10:25:17.793Z,736
2016-02-12T10:26:17.764Z,776
2016-02-12T10:27:17.753Z,760
2016-02-12T10:28:17.646Z,728
2016-02-12T10:29:17.602Z,736
2016-02-12T10:30:17.590Z,752
2016-02-12T10:31:17.482Z,568
2016-02-12T10:32:17.438Z,472
2016-02-12T10:33:17.410Z,700
2016-02-12T10:34:17.334Z,740
2016-02-12T10:35:17.274Z,688
2016-02-12T10:36:17.247Z,680
2016-02-12T10:37:17.250Z,668
2016-02-12T10:38:17.158Z,640
2016-02-12T10:39:17.116Z,632
2016-02-12T10:40:17.056Z,628
2016-02-12T10:41:17.012Z,612
2016-02-12T10:42:16.984Z,604
2016-02-12T10:43:16.929Z,544
2016-02-12T10:44:16.837Z,592
2016-02-12T10:45:16.778Z,588
2016-02-12T10:46:16.717Z,600
2016-02-12T10:47:16.680Z,604
2016-02-12T10:48:16.651Z,592
2016-02-12T10:49:16.622Z,592
2016-02-12T10:50:16.563Z,588
2016-02-12T10:51:16.519Z,588
2016-02-12T10:52:16.443Z,592
2016-02-12T10:53:16.415Z,588
2016-02-12T10:54:16.370Z,588
2016-02-12T10:55:16.389Z,580
2016-02-12T10:56:16.251Z,580
2016-02-12T10:57:16.238Z,580
2016-02-12T10:58:16.194Z,580
2016-02-12T10:59:16.087Z,580
2016-02-12T11:00:16.199Z,584
2016-02-12T11:01:16.264Z,592
2016-02-12T11:02:16.033Z,604
2016-02-12T11:03:15.972Z,616
2016-02-12T11:04:15.961Z,620
2016-02-12T11:05:15.870Z,624
2016-02-12T11:06:15.935Z,624
2016-02-12T11:07:15.750Z,632
2016-02-12T11:08:15.690Z,636
2016-02-12T11:09:15.646Z,644
2016-02-12T11:10:15.602Z,648
2016-02-12T11:11:15.558Z,652
2016-02-12T11:12:15.482Z,652
2016-02-12T11:13:15.471Z,652
2016-02-12T11:14:15.382Z,660
2016-02-12T11:15:15.353Z,656
2016-02-12T11:16:15.295Z,660
2016-02-12T11:17:15.265Z,656
2016-02-12T11:18:15.221Z,656
2016-02-12T11:19:15.161Z,656
2016-02-12T11:20:15.181Z,660
2016-02-12T11:21:15.042Z,660
2016-02-12T11:22:15.218Z,664
2016-02-12T11:23:15.002Z,660
2016-02-12T11:24:15.113Z,660
2016-02-12T11:25:14.898Z,660
2016-02-12T11:26:14.869Z,660
2016-02-12T11:27:14.778Z,660
2016-02-12T11:28:14.703Z,656
2016-02-12T11:29:29.538Z,648
2016-02-12T11:30:15.134Z,644
2016-02-12T11:31:14.587Z,644
2016-02-12T11:32:14.606Z,648
2016-02-12T11:33:14.500Z,636
2016-02-12T11:34:14.439Z,632
2016-02-12T11:35:14.442Z,628
2016-02-12T11:36:14.367Z,620
2016-02-12T11:37:14.291Z,616
2016-02-12T11:38:14.294Z,616
2016-02-12T11:39:14.315Z,612
2016-02-12T11:40:14.192Z,612
2016-02-12T11:41:14.102Z,612
2016-02-12T11:42:14.073Z,612
2016-02-12T11:43:14.030Z,616
2016-02-12T11:44:14.051Z,612
2016-02-12T11:45:13.929Z,608
2016-02-12T11:46:13.995Z,608
2016-02-12T11:47:13.841Z,612
2016-02-12T11:48:13.844Z,616
2016-02-12T11:49:13.785Z,608
2016-02-12T11:50:13.709Z,616
2016-02-12T11:51:13.666Z,624
2016-02-12T11:52:13.606Z,616
2016-02-12T11:53:13.561Z,616
2016-02-12T11:54:13.533Z,616
2016-02-12T11:55:13.552Z,616
2016-02-12T11:56:13.479Z,624
2016-02-12T11:57:13.403Z,640
2016-02-12T11:58:13.374Z,656
2016-02-12T11:59:13.270Z,640
2016-02-12T12:00:13.241Z,628
2016-02-12T12:01:13.197Z,628
2016-02-12T12:02:13.168Z,620
2016-02-12T12:03:13.078Z,600
2016-02-12T12:04:13.095Z,588
2016-02-12T12:05:13.006Z,512
2016-02-12T12:06:12.962Z,408
2016-02-12T12:07:12.948Z,404
2016-02-12T12:08:12.874Z,432
2016-02-12T12:09:12.814Z,436
2016-02-12T12:10:12.817Z,364
2016-02-12T12:11:12.726Z,240
2016-02-12T12:12:12.697Z,200
2016-02-12T12:13:12.637Z,188
2016-02-12T12:14:12.609Z,184
2016-02-12T12:15:12.549Z,180
2016-02-12T12:16:12.506Z,184
2016-02-12T12:17:12.463Z,184
2016-02-12T12:18:12.372Z,180
2016-02-12T12:19:12.343Z,176
2016-02-12T12:20:12.300Z,176
2016-02-12T12:21:12.256Z,180
2016-02-12T12:22:12.258Z,176
2016-02-12T12:23:12.058Z,180
2016-02-12T12:24:12.092Z,176
2016-02-12T12:25:12.017Z,184
2016-02-12T12:26:11.988Z,184
2016-02-12T12:27:12.037Z,196
2016-02-12T12:28:11.915Z,212
2016-02-12T12:29:11.840Z,224
2016-02-12T12:30:11.795Z,256
2016-02-12T12:31:11.752Z,272
2016-02-12T12:32:11.677Z,272
2016-02-12T12:33:11.664Z,304
2016-02-12T12:34:11.574Z,288
2016-02-12T12:35:11.545Z,260
2016-02-12T12:36:11.516Z,240
2016-02-12T12:37:11.441Z,240
2016-02-12T12:38:11.382Z,228
2016-02-12T12:39:11.415Z,188
2016-02-12T12:40:11.371Z,192
2016-02-12T12:41:11.264Z,172
2016-02-12T12:42:11.209Z,176
2016-02-12T12:43:11.134Z,176
2016-02-12T12:44:11.153Z,168
2016-02-12T12:45:11.076Z,168
2016-02-12T12:46:11.018Z,164
2016-02-12T12:47:10.958Z,168
2016-02-12T12:48:10.945Z,164
2016-02-12T12:49:10.838Z,156
2016-02-12T12:50:10.873Z,156
2016-02-12T12:51:10.782Z,156
2016-02-12T12:52:10.722Z,156
2016-02-12T12:53:09.913Z,156
2016-02-12T12:54:10.603Z,148
2016-02-12T12:55:10.527Z,136
2016-02-12T12:56:10.499Z,148
2016-02-12T12:57:10.471Z,128
2016-02-12T12:58:10.410Z,116
2016-02-12T12:59:10.351Z,128
2016-02-12T13:00:10.340Z,120
2016-02-12T13:01:10.280Z,136
2016-02-12T13:02:10.158Z,120
2016-02-12T13:03:10.176Z,136
2016-02-12T13:04:10.211Z,140
2016-02-12T13:05:10.026Z,136
2016-02-12T13:06:09.981Z,136
2016-02-12T13:07:09.922Z,140
2016-02-12T13:08:09.893Z,136
2016-02-12T13:09:09.897Z,144
2016-02-12T13:10:09.807Z,140
2016-02-12T13:11:09.700Z,140
2016-02-12T13:12:09.656Z,140
2016-02-12T13:13:09.612Z,136
2016-02-12T13:14:09.661Z,136
2016-02-12T13:15:09.509Z,132
2016-02-12T13:16:09.528Z,128
2016-02-12T13:17:09.389Z,132
2016-02-12T13:18:09.361Z,128
2016-02-12T13:19:09.301Z,128
2016-02-12T13:20:09.242Z,128
2016-02-12T13:21:09.323Z,124
2016-02-12T13:22:09.185Z,124
2016-02-12T13:23:09.078Z,120
2016-02-12T13:24:08.268Z,120
2016-02-12T13:25:08.803Z,120
2016-02-12T13:26:08.978Z,124
2016-02-12T13:27:08.776Z,120
2016-02-12T13:28:08.858Z,120
2016-02-12T13:29:08.831Z,120
2016-02-12T13:30:08.786Z,120
2016-02-12T13:31:08.680Z,120
2016-02-12T13:32:08.651Z,116
2016-02-12T13:33:08.841Z,116
2016-02-12T13:34:08.532Z,116
2016-02-12T13:35:08.549Z,116
2016-02-12T13:36:08.459Z,116
2016-02-12T13:37:08.431Z,112
2016-02-12T13:38:08.355Z,100
2016-02-12T13:39:08.311Z,116
2016-02-12T13:40:08.205Z,116
2016-02-12T13:41:08.286Z,112
2016-02-12T13:42:08.211Z,96
2016-02-12T13:43:08.104Z,96
2016-02-12T13:44:08.044Z,96
2016-02-12T13:45:07.953Z,96
2016-02-12T13:46:07.943Z,84
2016-02-12T13:47:07.930Z,80
2016-02-12T13:48:07.824Z,76
2016-02-12T13:49:07.810Z,72
2016-02-12T13:50:07.735Z,72
2016-02-12T13:51:07.706Z,68
2016-02-12T13:52:07.615Z,68
2016-02-12T13:53:07.555Z,68
2016-02-12T13:54:07.511Z,60
2016-02-12T13:55:07.437Z,60
2016-02-12T13:56:07.425Z,60
2016-02-12T13:57:07.364Z,60
2016-02-12T13:58:07.336Z,64
2016-02-12T13:59:07.323Z,68
2016-02-12T14:00:07.186Z,68
2016-02-12T14:01:07.172Z,68
2016-02-12T14:02:07.066Z,68
2016-02-12T14:03:07.038Z,68
2016-02-12T14:04:06.963Z,72
2016-02-12T14:05:06.966Z,68
2016-02-12T14:06:06.906Z,64
2016-02-12T14:07:06.815Z,60
2016-02-12T14:08:06.770Z,56
2016-02-12T14:09:06.758Z,56
2016-02-12T14:10:06.698Z,52
2016-02-12T14:11:06.685Z,56
2016-02-12T14:12:06.562Z,60
2016-02-12T14:13:06.519Z,56
2016-02-12T14:14:06.489Z,56
2016-02-12T14:15:06.478Z,60
2016-02-12T14:16:06.370Z,60
2016-02-12T14:17:06.327Z,64
2016-02-12T14:18:06.285Z,60
2016-02-12T14:19:06.241Z,60
2016-02-12T14:20:06.274Z,48
2016-02-12T14:21:06.136Z,52